Time;durP1;ratioP1;P1;durP2;ratioP2;P2;SDS_P1;SDS_P2;PMS_P1;PMS_P2;Temp;Humidity;BMP_temperature;BMP_pressure;BME280_temperature;BME280_humidity;BME280_pressure;Samples;Min_cycle;Max_cycle;Signal;HPM_P1;HPM_P2
2022/01/30 00:01:24;;;;;;;56.17;37.65;;;1.90;64.10;;;;;;5092701;28;20458;-71
2022/01/30 00:03:50;;;;;;;80.90;47.65;;;1.80;64.10;;;;;;5092115;28;20051;-68
2022/01/30 00:06:15;;;;;;;76.43;50.58;;;1.80;64.20;;;;;;5091932;28;20075;-70
2022/01/30 00:08:41;;;;;;;94.82;58.53;;;1.70;64.20;;;;;;5091977;28;20437;-70
2022/01/30 00:11:14;;;;;;;83.82;51.67;;;1.70;64.30;;;;;;5073680;28;20020;-71
2022/01/30 00:13:40;;;;;;;60.63;40.00;;;1.60;64.50;;;;;;5089870;28;20414;-69
2022/01/30 00:16:09;;;;;;;66.60;35.85;;;1.60;64.60;;;;;;5073937;28;20027;-71
2022/01/30 00:23:31;;;;;;;35.93;32.33;;;1.50;64.80;;;;;;5094098;28;20359;-71
2022/01/30 00:25:58;;;;;;;38.75;32.92;;;1.50;64.90;;;;;;5074827;28;20032;-73
2022/01/30 00:28:25;;;;;;;51.30;40.17;;;1.50;65.00;;;;;;5095576;28;20020;-70
2022/01/30 00:30:52;;;;;;;68.03;39.60;;;1.50;65.10;;;;;;5077410;28;20039;-72
2022/01/30 00:33:18;;;;;;;67.40;49.17;;;1.50;65.10;;;;;;5093056;28;20100;-71
2022/01/30 00:35:44;;;;;;;66.97;45.38;;;1.40;65.10;;;;;;5095465;28;20035;-70
2022/01/30 00:38:15;;;;;;;58.28;44.45;;;1.40;65.20;;;;;;5077025;28;20085;-71
2022/01/30 00:40:42;;;;;;;42.20;30.67;;;1.40;65.20;;;;;;5075258;28;20031;-72
2022/01/30 00:43:08;;;;;;;39.53;30.60;;;1.40;65.30;;;;;;5095235;28;20074;-71
2022/01/30 00:45:34;;;;;;;32.15;28.75;;;1.30;65.40;;;;;;5077013;28;20028;-69
2022/01/30 00:48:01;;;;;;;25.92;23.70;;;1.30;65.50;;;;;;5095179;28;20085;-67
2022/01/30 00:50:27;;;;;;;26.65;23.92;;;1.30;65.50;;;;;;5077022;28;20448;-68
2022/01/30 00:52:55;;;;;;;24.25;22.23;;;1.30;65.60;;;;;;5094984;28;20024;-71
2022/01/30 00:55:25;;;;;;;20.13;18.63;;;1.20;65.60;;;;;;5095251;28;20024;-67
2022/01/30 00:57:52;;;;;;;19.48;18.38;;;1.20;65.80;;;;;;5095051;28;20478;-67
2022/01/30 01:00:18;;;;;;;19.70;18.55;;;1.20;65.90;;;;;;5074466;28;20031;-69
2022/01/30 01:02:45;;;;;;;17.98;16.98;;;1.20;66.00;;;;;;5094861;28;20024;-69
2022/01/30 01:05:11;;;;;;;19.45;18.15;;;1.10;66.00;;;;;;5094694;28;20134;-67
2022/01/30 01:07:41;;;;;;;20.45;19.08;;;1.10;66.10;;;;;;5092350;28;20081;-69
2022/01/30 01:10:17;;;;;;;19.30;18.30;;;1.10;66.20;;;;;;5095070;28;20077;-70
2022/01/30 01:13:02;;;;;;;21.17;19.98;;;1.00;66.20;;;;;;5093065;28;20019;-70
2022/01/30 01:23:47;;;;;;;20.38;19.13;;;1.00;66.50;;;;;;5092561;28;20055;-69
2022/01/30 01:26:13;;;;;;;18.20;17.35;;;1.00;66.50;;;;;;5094621;28;20387;-69
2022/01/30 01:28:39;;;;;;;19.98;18.88;;;1.00;66.60;;;;;;5076610;28;20069;-68
2022/01/30 01:31:05;;;;;;;19.85;18.73;;;0.90;66.60;;;;;;5094481;28;20020;-70
2022/01/30 01:36:24;;;;;;;21.58;20.30;;;0.90;66.80;;;;;;5062705;28;20115;-68
2022/01/30 01:38:49;;;;;;;21.45;19.85;;;0.90;66.80;;;;;;5094548;28;20016;-69
2022/01/30 01:41:19;;;;;;;20.80;19.33;;;0.80;66.80;;;;;;5094226;28;20019;-70
2022/01/30 01:43:44;;;;;;;19.75;18.20;;;0.90;66.90;;;;;;5094170;28;20070;-69
2022/01/30 01:46:17;;;;;;;18.35;17.40;;;0.90;66.90;;;;;;5094281;28;20532;-69
2022/01/30 01:48:45;;;;;;;19.60;18.35;;;0.80;67.00;;;;;;5091957;28;20024;-68
2022/01/30 01:51:17;;;;;;;18.90;17.85;;;0.80;67.00;;;;;;5094115;28;20020;-67
2022/01/30 01:53:44;;;;;;;21.30;19.98;;;0.80;67.10;;;;;;5090828;28;20027;-70
2022/01/30 01:56:12;;;;;;;20.23;18.75;;;0.90;67.10;;;;;;5093992;28;20085;-71
2022/01/30 01:58:37;;;;;;;21.08;19.65;;;0.80;67.10;;;;;;5090291;28;20202;-69
2022/01/30 02:01:03;;;;;;;19.58;18.63;;;0.80;67.10;;;;;;5075664;28;20114;-69
2022/01/30 02:03:29;;;;;;;20.58;19.38;;;0.80;67.10;;;;;;5075580;28;20463;-71
2022/01/30 02:06:00;;;;;;;19.58;18.15;;;0.80;67.10;;;;;;5093777;28;20474;-70
2022/01/30 02:27:19;;;;;;;21.33;19.58;;;0.70;67.00;;;;;;5093765;28;20020;-69
2022/01/30 02:29:46;;;;;;;20.38;19.20;;;0.70;67.10;;;;;;5092997;28;20101;-69
2022/01/30 02:32:12;;;;;;;21.13;19.83;;;0.80;67.10;;;;;;5094853;28;20366;-70
2022/01/30 02:34:37;;;;;;;21.17;19.55;;;0.70;67.10;;;;;;5094652;28;20028;-69
2022/01/30 02:37:05;;;;;;;21.27;19.63;;;0.70;67.00;;;;;;5094611;28;20408;-69
2022/01/30 02:39:31;;;;;;;22.35;20.90;;;0.80;67.20;;;;;;5076563;28;20074;-69
2022/01/30 02:41:57;;;;;;;20.33;18.58;;;0.70;67.10;;;;;;5076456;28;20024;-70
2022/01/30 02:44:39;;;;;;;22.42;20.73;;;0.80;67.10;;;;;;5094410;28;20032;-70
2022/01/30 02:47:21;;;;;;;17.88;16.98;;;0.70;67.00;;;;;;5093959;28;20028;-70
2022/01/30 02:50:10;;;;;;;20.42;19.15;;;0.70;66.90;;;;;;5094810;28;20028;-69
2022/01/30 02:52:40;;;;;;;18.10;17.20;;;0.70;66.70;;;;;;5076365;28;20439;-69
2022/01/30 02:55:09;;;;;;;19.05;17.70;;;0.70;66.70;;;;;;5076297;28;20034;-69
2022/01/30 02:57:35;;;;;;;19.02;17.92;;;0.70;66.70;;;;;;5075934;28;20115;-69
2022/01/30 03:00:02;;;;;;;18.40;17.17;;;0.70;66.60;;;;;;5094073;28;20099;-70
2022/01/30 03:02:27;;;;;;;19.20;18.20;;;0.80;66.70;;;;;;5076058;28;20020;-70
2022/01/30 03:04:53;;;;;;;19.05;17.95;;;0.80;66.70;;;;;;5076010;28;20130;-70
2022/01/30 03:07:19;;;;;;;20.42;19.10;;;0.80;66.70;;;;;;5094315;28;20064;-70
2022/01/30 03:09:44;;;;;;;19.15;18.00;;;0.80;66.60;;;;;;5094096;28;20020;-68
2022/01/30 03:12:10;;;;;;;19.00;17.50;;;0.80;66.70;;;;;;5094068;28;20020;-69
2022/01/30 03:14:36;;;;;;;20.30;19.13;;;0.80;66.50;;;;;;5094100;28;20051;-70
2022/01/30 03:17:01;;;;;;;18.95;17.85;;;0.80;66.50;;;;;;5075833;28;20118;-69
2022/01/30 03:19:27;;;;;;;18.23;17.13;;;0.80;66.60;;;;;;5075772;28;20035;-69
2022/01/30 03:21:53;;;;;;;18.33;17.23;;;0.80;66.70;;;;;;5093947;28;20030;-70
2022/01/30 03:24:18;;;;;;;18.80;17.58;;;0.80;66.60;;;;;;5093810;28;20048;-70
2022/01/30 03:26:44;;;;;;;19.67;18.58;;;0.80;66.70;;;;;;5093625;28;20118;-70
2022/01/30 03:29:10;;;;;;;19.50;18.25;;;0.80;66.70;;;;;;5075770;28;20035;-69
2022/01/30 03:31:41;;;;;;;19.40;18.13;;;0.80;66.60;;;;;;5075948;28;20455;-69
2022/01/30 03:34:10;;;;;;;19.60;18.25;;;0.80;66.70;;;;;;5093963;28;20058;-69
2022/01/30 03:36:36;;;;;;;18.92;17.85;;;0.80;66.70;;;;;;5075789;28;20020;-69
2022/01/30 03:39:04;;;;;;;19.42;18.10;;;0.80;66.70;;;;;;5075696;28;20032;-69
2022/01/30 03:41:30;;;;;;;20.45;19.25;;;0.80;66.70;;;;;;5075509;28;20048;-69
2022/01/30 03:43:55;;;;;;;21.00;19.58;;;0.80;66.60;;;;;;5093875;28;20028;-69
2022/01/30 03:46:22;;;;;;;21.23;19.90;;;0.80;66.60;;;;;;5075624;28;20140;-70
2022/01/30 03:48:49;;;;;;;19.65;18.63;;;0.80;66.60;;;;;;5075614;28;20028;-69
2022/01/30 03:51:15;;;;;;;19.27;18.17;;;0.90;66.80;;;;;;5093728;28;20103;-69
2022/01/30 03:53:41;;;;;;;18.77;17.80;;;0.80;66.70;;;;;;5094050;28;20024;-68
2022/01/30 03:56:07;;;;;;;19.88;18.50;;;0.80;66.50;;;;;;5075428;28;20436;-69
2022/01/30 03:58:34;;;;;;;20.23;18.00;;;0.90;67.30;;;;;;5097524;28;20028;-70
2022/01/30 04:01:00;;;;;;;20.02;18.73;;;0.90;66.70;;;;;;5079760;28;20024;-68
2022/01/30 04:03:26;;;;;;;22.13;20.35;;;0.90;66.70;;;;;;5079452;28;20423;-70
2022/01/30 04:05:52;;;;;;;21.73;20.30;;;1.00;66.70;;;;;;5097545;28;20118;-71
2022/01/30 04:08:18;;;;;;;19.88;18.50;;;1.00;66.70;;;;;;5079325;28;20031;-71
2022/01/30 04:10:44;;;;;;;18.92;17.90;;;1.00;66.60;;;;;;5097509;28;20060;-70
2022/01/30 04:13:09;;;;;;;19.33;18.13;;;1.00;66.50;;;;;;5079613;28;20024;-69
2022/01/30 04:15:36;;;;;;;18.35;17.48;;;1.10;66.60;;;;;;5079087;28;20480;-69
2022/01/30 04:18:02;;;;;;;19.42;18.00;;;1.10;66.50;;;;;;5097495;28;20367;-69
2022/01/30 04:20:29;;;;;;;16.85;15.88;;;1.10;66.50;;;;;;5079160;28;20077;-70
2022/01/30 04:22:55;;;;;;;19.13;17.95;;;1.10;66.50;;;;;;5096999;28;20055;-69
2022/01/30 04:25:20;;;;;;;16.50;15.77;;;1.10;66.30;;;;;;5097367;28;20044;-69
2022/01/30 04:27:46;;;;;;;18.00;17.20;;;1.20;66.40;;;;;;5097234;28;20020;-69
2022/01/30 04:30:13;;;;;;;18.98;17.98;;;1.20;66.30;;;;;;5097321;28;20383;-69
2022/01/30 04:32:42;;;;;;;18.42;17.42;;;1.20;66.20;;;;;;5097081;28;20423;-69
2022/01/30 04:35:13;;;;;;;18.40;17.48;;;1.20;66.20;;;;;;5078903;28;20024;-69
2022/01/30 04:38:33;;;;;;;18.80;17.13;;;1.20;66.30;;;;;;5097086;28;20069;-69
2022/01/30 04:57:05;;;;;;;17.45;16.50;;;1.20;65.50;;;;;;5096054;28;20103;-70
2022/01/30 05:07:39;;;;;;;21.13;19.80;;;1.20;65.50;;;;;;5064444;28;20036;-69
2022/01/30 05:10:05;;;;;;;18.95;17.85;;;1.20;65.20;;;;;;5095754;28;20474;-68
2022/01/30 05:12:41;;;;;;;20.92;19.83;;;1.30;65.30;;;;;;5095956;28;20466;-70
2022/01/30 05:15:07;;;;;;;21.58;19.73;;;1.30;65.30;;;;;;5077697;28;20024;-69
2022/01/30 05:17:33;;;;;;;18.73;17.40;;;1.30;65.20;;;;;;5094958;28;20032;-72
2022/01/30 05:20:00;;;;;;;20.17;19.00;;;1.30;65.10;;;;;;5096061;28;20032;-70
2022/01/30 05:22:26;;;;;;;19.27;18.27;;;1.30;65.00;;;;;;5077630;28;20032;-67
2022/01/30 05:24:52;;;;;;;19.25;18.25;;;1.30;64.80;;;;;;5095726;28;20452;-70
2022/01/30 05:27:18;;;;;;;18.70;17.70;;;1.30;64.80;;;;;;5077724;28;20028;-71
2022/01/30 05:29:43;;;;;;;19.42;17.85;;;1.30;64.70;;;;;;5077601;28;20024;-70
2022/01/30 05:32:10;;;;;;;18.50;17.33;;;1.30;64.70;;;;;;5077469;28;20462;-68
2022/01/30 05:34:35;;;;;;;18.42;17.40;;;1.30;64.40;;;;;;5095831;28;20051;-72
2022/01/30 05:37:03;;;;;;;20.13;18.42;;;1.20;64.50;;;;;;5095745;28;20067;-69
2022/01/30 05:39:29;;;;;;;19.48;18.17;;;1.30;64.50;;;;;;5096127;28;20024;-70
2022/01/30 05:41:55;;;;;;;20.05;18.92;;;1.30;64.50;;;;;;5095620;28;20115;-71
2022/01/30 05:44:31;;;;;;;19.10;18.13;;;1.30;64.40;;;;;;5095382;28;20068;-69
2022/01/30 05:47:01;;;;;;;20.80;19.63;;;1.30;64.40;;;;;;5095747;28;20020;-68
2022/01/30 05:49:29;;;;;;;19.73;18.38;;;1.30;64.30;;;;;;5095510;28;20020;-70
2022/01/30 05:51:54;;;;;;;19.42;18.17;;;1.30;64.20;;;;;;5095559;28;20351;-69
2022/01/30 05:54:20;;;;;;;19.63;18.42;;;1.30;64.30;;;;;;5077286;28;20025;-70
2022/01/30 05:56:46;;;;;;;17.92;16.75;;;1.30;64.40;;;;;;5095561;28;20106;-70
2022/01/30 05:59:11;;;;;;;18.73;17.83;;;1.30;64.40;;;;;;5095409;28;20445;-68
2022/01/30 06:01:37;;;;;;;21.52;19.73;;;1.20;64.60;;;;;;5095304;28;20070;-70
2022/01/30 06:04:03;;;;;;;19.00;18.05;;;1.10;65.30;;;;;;5095455;28;20032;-69
2022/01/30 06:06:28;;;;;;;21.02;19.98;;;1.10;65.80;;;;;;5095292;28;20119;-70
2022/01/30 06:11:38;;;;;;;19.60;18.40;;;1.10;66.30;;;;;;5095446;28;20039;-70
2022/01/30 06:14:04;;;;;;;18.38;17.48;;;1.10;66.40;;;;;;5077337;28;20123;-69
2022/01/30 06:16:30;;;;;;;18.92;17.73;;;1.10;66.50;;;;;;5077031;28;20035;-69
2022/01/30 06:18:55;;;;;;;19.02;17.52;;;1.10;66.90;;;;;;5076870;28;20423;-69
2022/01/30 06:21:21;;;;;;;19.40;18.17;;;0.90;67.30;;;;;;5095236;28;20028;-69
2022/01/30 06:23:47;;;;;;;18.05;17.10;;;0.80;67.80;;;;;;5094591;28;20052;-74
2022/01/30 06:26:12;;;;;;;18.85;17.85;;;0.80;68.40;;;;;;5076420;28;20121;-72
2022/01/30 06:28:38;;;;;;;21.23;19.58;;;0.70;68.70;;;;;;5076829;28;20398;-71
2022/01/30 06:31:04;;;;;;;20.40;19.27;;;0.70;69.00;;;;;;5076483;28;20032;-72
2022/01/30 06:33:29;;;;;;;18.70;17.80;;;0.70;69.10;;;;;;5094476;28;20020;-72
2022/01/30 06:35:55;;;;;;;18.67;17.58;;;0.70;69.30;;;;;;5076508;28;20195;-72
2022/01/30 06:38:20;;;;;;;20.45;19.25;;;0.70;69.60;;;;;;5094125;28;20085;-73
2022/01/30 06:40:46;;;;;;;21.27;20.00;;;0.80;69.80;;;;;;5094410;28;20081;-72
2022/01/30 06:43:12;;;;;;;20.50;19.33;;;0.70;69.90;;;;;;5094533;28;20036;-72
2022/01/30 06:45:37;;;;;;;22.55;21.33;;;0.70;70.30;;;;;;5076316;28;20032;-74
2022/01/30 06:48:03;;;;;;;20.27;18.88;;;0.60;70.70;;;;;;5094288;28;20093;-75
2022/01/30 06:50:29;;;;;;;19.63;18.33;;;0.60;71.30;;;;;;5076350;28;20356;-73
2022/01/30 06:52:55;;;;;;;19.20;18.00;;;0.50;71.70;;;;;;5094217;28;20020;-72
2022/01/30 06:55:21;;;;;;;22.05;20.80;;;0.50;72.20;;;;;;5093598;28;20390;-70
2022/01/30 06:57:47;;;;;;;21.20;20.00;;;0.50;72.60;;;;;;5093562;28;20055;-78
2022/01/30 07:00:13;;;;;;;20.65;19.45;;;0.40;72.90;;;;;;5075734;28;20536;-80
2022/01/30 07:02:39;;;;;;;19.80;18.88;;;0.30;73.30;;;;;;5076148;28;20016;-80
2022/01/30 07:05:05;;;;;;;20.33;19.23;;;0.30;73.80;;;;;;5076151;28;20153;-86
2022/01/30 07:07:31;;;;;;;20.92;19.50;;;0.30;74.20;;;;;;5080162;28;20020;-77
2022/01/30 07:09:57;;;;;;;21.35;19.90;;;0.30;74.60;;;;;;5095674;28;20012;-78
2022/01/30 07:12:23;;;;;;;23.85;21.77;;;0.30;74.90;;;;;;5114094;28;20016;-81
2022/01/30 07:14:49;;;;;;;20.00;18.77;;;0.30;75.00;;;;;;5087618;28;20020;-82
2022/01/30 07:17:15;;;;;;;19.45;18.10;;;0.30;75.20;;;;;;5084896;28;20045;-83
2022/01/30 07:19:41;;;;;;;19.52;18.42;;;0.30;75.40;;;;;;5097203;28;20522;-84
2022/01/30 07:22:07;;;;;;;18.98;18.08;;;0.30;75.50;;;;;;5094263;28;20023;-79
2022/01/30 07:24:33;;;;;;;20.13;18.58;;;0.30;75.80;;;;;;5074996;28;20040;-69
2022/01/30 07:26:59;;;;;;;20.85;19.85;;;0.20;76.00;;;;;;5092520;28;20039;-72
2022/01/30 07:29:25;;;;;;;19.17;18.35;;;0.30;76.20;;;;;;5074796;28;20108;-73
2022/01/30 07:31:51;;;;;;;19.42;18.42;;;0.20;76.30;;;;;;5074739;28;20066;-76
2022/01/30 07:34:17;;;;;;;21.30;19.95;;;0.20;76.60;;;;;;5093514;28;20035;-76
2022/01/30 07:36:43;;;;;;;20.58;19.55;;;0.20;76.70;;;;;;5094584;28;20028;-73
2022/01/30 07:39:12;;;;;;;20.75;19.52;;;0.20;77.10;;;;;;5094950;28;20089;-72
2022/01/30 07:41:37;;;;;;;23.40;20.83;;;0.20;78.00;;;;;;5075711;28;20105;-73
2022/01/30 07:44:04;;;;;;;21.40;20.17;;;0.20;77.70;;;;;;5091483;28;20489;-68
2022/01/30 07:46:30;;;;;;;21.38;19.83;;;0.20;78.20;;;;;;5092158;28;20025;-70
2022/01/30 07:48:56;;;;;;;21.02;19.73;;;0.30;78.60;;;;;;5073788;28;20027;-75
2022/01/30 07:51:22;;;;;;;22.90;20.98;;;0.30;78.90;;;;;;5073928;28;20466;-71
2022/01/30 07:53:48;;;;;;;24.58;22.55;;;0.40;79.20;;;;;;5073740;28;20081;-73
2022/01/30 07:56:14;;;;;;;23.52;22.17;;;0.40;79.30;;;;;;5074225;28;20031;-69
2022/01/30 07:58:39;;;;;;;23.15;20.80;;;0.50;79.40;;;;;;5073825;28;20030;-71
2022/01/30 08:01:05;;;;;;;20.80;19.42;;;0.60;79.60;;;;;;5073883;28;20027;-72
2022/01/30 08:03:31;;;;;;;18.50;17.38;;;0.60;79.60;;;;;;5091925;28;20073;-74
2022/01/30 08:05:57;;;;;;;22.65;21.05;;;0.70;79.80;;;;;;5074187;28;20029;-72
2022/01/30 08:08:23;;;;;;;20.80;19.40;;;0.70;79.80;;;;;;5075276;28;20073;-78
2022/01/30 08:10:49;;;;;;;21.05;19.75;;;0.70;79.70;;;;;;5075308;28;20020;-78
2022/01/30 08:13:16;;;;;;;23.35;21.70;;;0.70;79.80;;;;;;5076038;28;20027;-71
2022/01/30 08:15:45;;;;;;;22.42;21.00;;;0.70;79.90;;;;;;5094199;28;20102;-72
2022/01/30 08:18:11;;;;;;;21.52;20.00;;;0.80;80.20;;;;;;5093475;28;20170;-73
2022/01/30 08:20:37;;;;;;;23.83;22.20;;;0.80;80.20;;;;;;5075233;28;20055;-73
2022/01/30 08:23:10;;;;;;;25.23;22.67;;;0.80;80.20;;;;;;5092863;28;20063;-75
2022/01/30 08:25:36;;;;;;;22.65;21.02;;;0.80;80.40;;;;;;5074608;28;20044;-72
2022/01/30 08:28:02;;;;;;;21.45;20.15;;;0.80;80.30;;;;;;5075335;28;20024;-77
2022/01/30 08:30:27;;;;;;;23.27;21.80;;;0.80;80.50;;;;;;5097550;28;20478;-76
2022/01/30 08:32:53;;;;;;;20.17;18.77;;;0.90;80.60;;;;;;5094675;28;20027;-73
2022/01/30 08:35:19;;;;;;;21.88;20.67;;;0.90;80.60;;;;;;5094322;28;20032;-76
2022/01/30 08:37:45;;;;;;;21.55;20.10;;;0.90;80.50;;;;;;5094985;28;20029;-80
2022/01/30 08:40:14;;;;;;;25.42;23.73;;;0.90;80.70;;;;;;5092390;28;20024;-75
2022/01/30 08:42:40;;;;;;;23.63;22.00;;;0.90;81.00;;;;;;5071072;28;20016;-71
2022/01/30 08:45:08;;;;;;;26.42;24.35;;;0.90;81.10;;;;;;5075492;28;20093;-71
2022/01/30 08:47:34;;;;;;;36.80;23.85;;;0.90;81.20;;;;;;5077831;28;20035;-73
2022/01/30 08:50:00;;;;;;;22.58;21.15;;;1.00;81.10;;;;;;5078673;28;20024;-74
2022/01/30 08:52:26;;;;;;;22.52;20.67;;;1.00;80.90;;;;;;5096768;28;20055;-72
2022/01/30 08:54:52;;;;;;;22.50;20.33;;;1.00;81.00;;;;;;5078528;28;20507;-70
2022/01/30 08:57:19;;;;;;;24.65;22.45;;;1.00;80.80;;;;;;5096534;28;20032;-71
2022/01/30 08:59:45;;;;;;;23.05;21.40;;;1.00;81.00;;;;;;5078271;28;20121;-67
2022/01/30 09:02:11;;;;;;;27.92;25.73;;;1.00;81.10;;;;;;5096281;28;20028;-78
2022/01/30 09:04:36;;;;;;;25.75;23.55;;;1.00;81.10;;;;;;5095795;28;20039;-69
2022/01/30 09:07:02;;;;;;;24.23;22.52;;;1.00;81.30;;;;;;5096436;28;20462;-72
2022/01/30 09:09:30;;;;;;;22.35;20.63;;;1.00;81.60;;;;;;5095298;28;20058;-72
2022/01/30 09:11:58;;;;;;;24.17;21.83;;;1.00;81.80;;;;;;5075967;28;20020;-70
2022/01/30 09:14:26;;;;;;;25.70;23.40;;;1.00;82.00;;;;;;5094387;28;20059;-70
2022/01/30 09:16:52;;;;;;;26.70;24.40;;;1.00;82.30;;;;;;5062549;28;20078;-70
2022/01/30 09:19:18;;;;;;;29.70;25.20;;;1.00;82.50;;;;;;5095056;28;20025;-70
2022/01/30 09:21:44;;;;;;;27.45;24.08;;;0.90;82.70;;;;;;5078472;28;20424;-71
2022/01/30 09:24:10;;;;;;;22.35;20.55;;;1.00;82.90;;;;;;5074820;28;20048;-70
2022/01/30 09:26:35;;;;;;;23.92;22.00;;;1.00;82.90;;;;;;5077047;28;20020;-70
2022/01/30 09:29:01;;;;;;;22.60;21.00;;;1.00;83.00;;;;;;5094539;28;20089;-68
2022/01/30 09:31:27;;;;;;;26.80;24.05;;;1.00;83.20;;;;;;5078658;28;20028;-69
2022/01/30 09:33:52;;;;;;;24.80;22.67;;;1.00;83.30;;;;;;5102612;28;20507;-69
2022/01/30 09:36:19;;;;;;;22.65;20.83;;;1.00;83.40;;;;;;5108234;28;20039;-70
2022/01/30 09:38:44;;;;;;;29.10;26.55;;;1.00;83.60;;;;;;5098140;28;20036;-67
2022/01/30 09:41:11;;;;;;;23.85;22.17;;;1.00;83.90;;;;;;5076729;28;20063;-68
2022/01/30 09:43:37;;;;;;;21.67;20.15;;;1.00;84.00;;;;;;5095200;28;20032;-69
2022/01/30 09:46:04;;;;;;;26.13;24.25;;;1.00;84.10;;;;;;5095140;28;20047;-69
2022/01/30 09:48:35;;;;;;;24.75;22.58;;;1.00;84.20;;;;;;5076301;28;20107;-69
2022/01/30 09:51:04;;;;;;;27.40;24.95;;;1.00;84.40;;;;;;5073662;28;20055;-67
2022/01/30 09:53:31;;;;;;;24.05;22.33;;;1.00;84.50;;;;;;5091432;28;20046;-66
2022/01/30 09:55:57;;;;;;;21.80;20.33;;;1.10;84.60;;;;;;5074256;28;20028;-68
2022/01/30 09:58:23;;;;;;;24.40;22.00;;;1.00;84.60;;;;;;5093006;28;20518;-65
2022/01/30 10:00:49;;;;;;;24.83;22.85;;;1.10;84.70;;;;;;5074873;28;20024;-66
2022/01/30 10:03:22;;;;;;;22.63;21.10;;;1.10;84.70;;;;;;5093715;28;20027;-71
2022/01/30 10:06:16;;;;;;;24.45;22.73;;;1.10;84.90;;;;;;5091407;28;20028;-62
2022/01/30 10:08:47;;;;;;;25.08;22.70;;;1.10;85.00;;;;;;5091665;28;20056;-63
2022/01/30 10:11:28;;;;;;;22.73;20.88;;;1.10;85.00;;;;;;5072652;28;20034;-64
2022/01/30 10:14:11;;;;;;;23.17;21.65;;;1.20;85.30;;;;;;5081942;28;20027;-63
2022/01/30 10:16:45;;;;;;;24.35;22.45;;;1.20;85.40;;;;;;5093924;28;20020;-64
2022/01/30 10:19:20;;;;;;;21.65;20.00;;;1.20;85.20;;;;;;5092149;28;20057;-64
2022/01/30 10:21:47;;;;;;;25.10;23.25;;;1.20;85.30;;;;;;5093919;28;20421;-62
2022/01/30 10:24:27;;;;;;;21.42;19.90;;;1.20;85.30;;;;;;5074315;28;20087;-63
2022/01/30 10:26:57;;;;;;;22.38;20.92;;;1.20;85.50;;;;;;5090726;28;20030;-62
2022/01/30 10:29:28;;;;;;;21.17;19.83;;;1.20;85.40;;;;;;5092469;28;20024;-63
2022/01/30 10:32:06;;;;;;;23.27;21.15;;;1.20;85.50;;;;;;5093263;28;20078;-62
2022/01/30 10:34:33;;;;;;;22.02;20.45;;;1.30;85.60;;;;;;5092368;28;20023;-63
2022/01/30 10:37:23;;;;;;;21.35;19.92;;;1.30;85.50;;;;;;5092364;28;20115;-64
2022/01/30 10:40:12;;;;;;;25.50;22.40;;;1.30;85.80;;;;;;5068918;28;20026;-65
2022/01/30 10:42:51;;;;;;;27.30;25.15;;;1.30;85.70;;;;;;5072906;28;20024;-66
2022/01/30 10:45:33;;;;;;;23.48;21.50;;;1.30;85.60;;;;;;5092506;28;20043;-66
2022/01/30 10:48:21;;;;;;;29.42;24.52;;;1.40;85.90;;;;;;5091637;28;20081;-65
2022/01/30 10:50:48;;;;;;;25.42;23.50;;;1.40;85.90;;;;;;5090850;28;20108;-65
2022/01/30 10:53:23;;;;;;;28.73;26.25;;;1.40;85.90;;;;;;5072651;28;20664;-65
2022/01/30 10:55:49;;;;;;;37.13;27.00;;;1.40;86.10;;;;;;5069741;28;20031;-65
2022/01/30 10:58:21;;;;;;;32.10;25.83;;;1.40;86.20;;;;;;5091110;28;20454;-63
2022/01/30 11:00:55;;;;;;;63.38;33.88;;;1.40;86.30;;;;;;5091171;28;20472;-63
2022/01/30 11:03:50;;;;;;;47.42;34.67;;;1.50;86.60;;;;;;5091321;28;20035;-62
2022/01/30 11:06:16;;;;;;;29.33;26.70;;;1.50;86.60;;;;;;5072056;28;20386;-62
2022/01/30 11:08:49;;;;;;;32.35;28.88;;;1.60;86.50;;;;;;5069856;28;20089;-62
2022/01/30 11:11:45;;;;;;;56.55;40.85;;;1.50;86.70;;;;;;5090417;28;20070;-63
2022/01/30 11:19:18;;;;;;;80.55;55.53;;;1.60;86.90;;;;;;5091020;28;20401;-61
2022/01/30 11:21:48;;;;;;;111.13;67.00;;;1.70;86.70;;;;;;5090680;28;20052;-62
2022/01/30 11:24:16;;;;;;;173.10;84.78;;;1.70;86.90;;;;;;5089590;28;20050;-63
2022/01/30 11:26:44;;;;;;;201.32;93.55;;;1.80;87.10;;;;;;5091704;28;20133;-63
2022/01/30 11:29:15;;;;;;;182.73;94.68;;;1.80;87.60;;;;;;5073949;28;20050;-64
2022/01/30 11:31:42;;;;;;;146.57;86.03;;;1.80;87.00;;;;;;5092043;28;20031;-63
2022/01/30 11:34:08;;;;;;;198.75;103.60;;;1.80;86.90;;;;;;5091779;28;20016;-63
2022/01/30 11:36:38;;;;;;;170.43;97.55;;;1.80;87.10;;;;;;5091509;28;20024;-63
2022/01/30 11:39:05;;;;;;;115.05;69.85;;;1.90;87.40;;;;;;5073724;28;20113;-63
2022/01/30 11:41:34;;;;;;;141.48;73.80;;;1.90;87.30;;;;;;5073452;28;20024;-62
2022/01/30 11:44:18;;;;;;;170.48;84.05;;;2.00;87.00;;;;;;5091971;28;20020;-62
2022/01/30 11:46:55;;;;;;;179.30;86.22;;;1.90;87.20;;;;;;5086584;28;20036;-61
2022/01/30 11:49:22;;;;;;;165.82;86.20;;;2.00;87.30;;;;;;5089242;28;20082;-62
2022/01/30 11:51:52;;;;;;;166.35;76.75;;;2.00;87.30;;;;;;5071471;28;20024;-61
2022/01/30 11:54:50;;;;;;;160.52;74.07;;;2.00;87.50;;;;;;5090913;28;20433;-62
2022/01/30 11:57:21;;;;;;;129.20;71.38;;;2.10;87.80;;;;;;5073360;28;20063;-61
2022/01/30 12:00:07;;;;;;;176.82;97.15;;;2.10;87.70;;;;;;5092749;28;20028;-60
2022/01/30 12:02:36;;;;;;;115.20;65.50;;;2.20;87.90;;;;;;5074263;28;20069;-61
2022/01/30 12:05:08;;;;;;;101.90;61.30;;;2.20;87.50;;;;;;5072995;28;20024;-60
2022/01/30 12:07:37;;;;;;;164.25;81.20;;;2.20;87.80;;;;;;5091040;28;20036;-61
2022/01/30 12:10:15;;;;;;;242.25;101.60;;;2.20;88.10;;;;;;5090033;28;20032;-61
2022/01/30 12:12:54;;;;;;;248.32;104.60;;;2.30;88.50;;;;;;5090501;28;20047;-61
2022/01/30 12:15:38;;;;;;;193.05;92.57;;;2.30;88.50;;;;;;5090076;28;20020;-62
2022/01/30 12:18:05;;;;;;;176.02;81.65;;;2.30;88.40;;;;;;5092068;28;20028;-63
2022/01/30 12:21:04;;;;;;;147.65;72.00;;;2.40;88.30;;;;;;5094271;28;20533;-62
2022/01/30 12:23:32;;;;;;;177.63;79.07;;;2.40;88.60;;;;;;5074249;28;20040;-62
2022/01/30 12:26:05;;;;;;;168.07;80.10;;;2.40;88.40;;;;;;5094646;28;20078;-62
2022/01/30 12:28:49;;;;;;;135.93;71.78;;;2.40;88.40;;;;;;5092438;28;20427;-61
2022/01/30 12:31:34;;;;;;;172.70;77.07;;;2.30;88.40;;;;;;5091856;28;20107;-63
2022/01/30 12:34:16;;;;;;;203.38;91.55;;;2.30;88.40;;;;;;5075878;28;20425;-62
2022/01/30 12:36:51;;;;;;;275.45;120.93;;;2.30;88.50;;;;;;5093806;28;20426;-62
2022/01/30 12:39:22;;;;;;;211.77;97.95;;;2.30;88.70;;;;;;5074791;28;20461;-63
2022/01/30 12:41:50;;;;;;;156.85;78.55;;;2.40;89.20;;;;;;5093537;28;20100;-62
2022/01/30 12:44:20;;;;;;;109.05;62.50;;;2.40;89.30;;;;;;5075144;28;20051;-62
2022/01/30 12:46:51;;;;;;;84.45;50.95;;;2.40;89.20;;;;;;5092664;28;20024;-62
2022/01/30 12:49:19;;;;;;;85.30;44.60;;;2.40;89.00;;;;;;5092613;28;20028;-63
2022/01/30 12:52:01;;;;;;;61.05;38.20;;;2.40;89.20;;;;;;5091422;28;20024;-63
2022/01/30 12:54:37;;;;;;;50.55;35.70;;;2.40;89.30;;;;;;5088961;28;20107;-62
2022/01/30 12:57:03;;;;;;;28.02;25.38;;;2.40;89.20;;;;;;5075474;28;20028;-61
2022/01/30 12:59:30;;;;;;;29.30;27.05;;;2.50;89.30;;;;;;5091860;28;20043;-62
2022/01/30 13:02:06;;;;;;;28.20;25.75;;;2.50;89.30;;;;;;5094617;28;20098;-62
2022/01/30 13:04:33;;;;;;;26.40;24.25;;;2.50;89.60;;;;;;5071286;28;20071;-62
2022/01/30 13:06:59;;;;;;;26.42;24.17;;;2.60;89.30;;;;;;5094743;28;20042;-62
2022/01/30 13:09:30;;;;;;;24.85;23.05;;;2.60;89.10;;;;;;5076659;28;20032;-62
2022/01/30 13:12:01;;;;;;;26.25;23.55;;;2.60;89.10;;;;;;5094633;28;20458;-62
2022/01/30 13:14:37;;;;;;;30.85;28.05;;;2.60;89.20;;;;;;5073815;28;20032;-62
2022/01/30 13:17:04;;;;;;;26.23;24.13;;;2.60;89.30;;;;;;5092065;28;20035;-63
2022/01/30 13:19:34;;;;;;;27.38;25.10;;;2.60;89.20;;;;;;5095452;28;20111;-61
2022/01/30 13:22:02;;;;;;;26.88;24.48;;;2.60;88.80;;;;;;5095003;28;20024;-62
2022/01/30 13:24:29;;;;;;;35.60;31.92;;;2.60;88.80;;;;;;5101132;28;20398;-64
2022/01/30 13:27:01;;;;;;;41.22;29.40;;;2.60;88.70;;;;;;5077619;28;20390;-62
2022/01/30 13:29:27;;;;;;;34.60;27.50;;;2.60;88.80;;;;;;5090627;28;20463;-61
2022/01/30 13:31:54;;;;;;;44.90;28.35;;;2.60;89.00;;;;;;5094777;28;20462;-63
2022/01/30 13:34:32;;;;;;;30.92;27.90;;;2.60;89.30;;;;;;5094335;28;20020;-61
2022/01/30 13:36:59;;;;;;;32.45;28.60;;;2.60;89.40;;;;;;5075319;28;20390;-61
2022/01/30 13:39:34;;;;;;;35.63;31.38;;;2.60;89.50;;;;;;5076965;28;20047;-61
2022/01/30 13:46:53;;;;;;;33.10;29.63;;;2.70;89.80;;;;;;5072573;28;20375;-61
2022/01/30 13:48:08;;;;;;;39.03;28.88;;;2.80;89.70;;;;;;5094334;28;20040;-63
2022/01/30 13:50:34;;;;;;;30.27;26.98;;;2.80;89.60;;;;;;5095486;28;20108;-61
2022/01/30 13:53:13;;;;;;;32.70;29.38;;;2.80;89.50;;;;;;5076842;28;20021;-61
2022/01/30 13:55:56;;;;;;;26.13;24.15;;;2.90;89.60;;;;;;5094985;28;20036;-61